sensor_id;sensor_type;location;lat;lon;timestamp;P1;durP1;ratioP1;P2;durP2;ratioP2
76725;SDS011;65651;53.154;17.916;2023-08-31T00:02:17;4.90;;;2.30;;
76725;SDS011;65651;53.154;17.916;2023-08-31T00:04:45;6.20;;;2.90;;
76725;SDS011;65651;53.154;17.916;2023-08-31T00:07:15;10.10;;;3.10;;
76725;SDS011;65651;53.154;17.916;2023-08-31T00:09:43;5.30;;;2.80;;
76725;SDS011;65651;53.154;17.916;2023-08-31T00:12:10;5.70;;;3.00;;
76725;SDS011;65651;53.154;17.916;2023-08-31T00:14:38;3.30;;;2.80;;
76725;SDS011;65651;53.154;17.916;2023-08-31T00:17:05;4.80;;;3.00;;
76725;SDS011;65651;53.154;17.916;2023-08-31T00:19:33;8.50;;;3.60;;
76725;SDS011;65651;53.154;17.916;2023-08-31T00:22:04;7.40;;;4.40;;
76725;SDS011;65651;53.154;17.916;2023-08-31T00:24:35;5.40;;;4.30;;
76725;SDS011;65651;53.154;17.916;2023-08-31T00:27:06;8.40;;;3.70;;
76725;SDS011;65651;53.154;17.916;2023-08-31T00:29:37;10.10;;;4.30;;
76725;SDS011;65651;53.154;17.916;2023-08-31T00:32:06;11.80;;;4.70;;
76725;SDS011;65651;53.154;17.916;2023-08-31T00:34:33;7.30;;;4.40;;
76725;SDS011;65651;53.154;17.916;2023-08-31T00:37:02;5.60;;;3.80;;
76725;SDS011;65651;53.154;17.916;2023-08-31T00:39:32;9.30;;;4.70;;
76725;SDS011;65651;53.154;17.916;2023-08-31T00:42:00;10.10;;;5.00;;
76725;SDS011;65651;53.154;17.916;2023-08-31T00:44:27;8.60;;;4.60;;
76725;SDS011;65651;53.154;17.916;2023-08-31T00:46:55;8.90;;;4.60;;
76725;SDS011;65651;53.154;17.916;2023-08-31T00:49:23;12.20;;;4.80;;
76725;SDS011;65651;53.154;17.916;2023-08-31T00:51:51;7.50;;;4.40;;
76725;SDS011;65651;53.154;17.916;2023-08-31T00:54:20;7.20;;;4.70;;
76725;SDS011;65651;53.154;17.916;2023-08-31T00:56:57;7.00;;;5.20;;
76725;SDS011;65651;53.154;17.916;2023-08-31T00:59:27;6.20;;;5.10;;
76725;SDS011;65651;53.154;17.916;2023-08-31T01:02:07;6.70;;;4.90;;
76725;SDS011;65651;53.154;17.916;2023-08-31T01:04:48;8.50;;;4.80;;
76725;SDS011;65651;53.154;17.916;2023-08-31T01:07:40;10.80;;;5.00;;
76725;SDS011;65651;53.154;17.916;2023-08-31T01:13:12;7.80;;;5.00;;
76725;SDS011;65651;53.154;17.916;2023-08-31T01:15:46;7.50;;;5.10;;
76725;SDS011;65651;53.154;17.916;2023-08-31T01:18:18;7.60;;;4.70;;
76725;SDS011;65651;53.154;17.916;2023-08-31T01:23:55;9.10;;;4.40;;
76725;SDS011;65651;53.154;17.916;2023-08-31T01:26:33;6.60;;;4.80;;
76725;SDS011;65651;53.154;17.916;2023-08-31T01:29:03;6.40;;;4.20;;
76725;SDS011;65651;53.154;17.916;2023-08-31T01:31:31;8.50;;;4.80;;
76725;SDS011;65651;53.154;17.916;2023-08-31T01:34:01;9.10;;;3.90;;
76725;SDS011;65651;53.154;17.916;2023-08-31T01:36:30;5.60;;;4.40;;
76725;SDS011;65651;53.154;17.916;2023-08-31T01:39:09;5.90;;;4.50;;
76725;SDS011;65651;53.154;17.916;2023-08-31T01:41:43;6.10;;;3.80;;
76725;SDS011;65651;53.154;17.916;2023-08-31T01:44:16;6.50;;;4.80;;
76725;SDS011;65651;53.154;17.916;2023-08-31T01:46:51;11.90;;;4.90;;
76725;SDS011;65651;53.154;17.916;2023-08-31T01:49:27;6.80;;;4.10;;
76725;SDS011;65651;53.154;17.916;2023-08-31T01:51:57;6.50;;;4.30;;
76725;SDS011;65651;53.154;17.916;2023-08-31T01:54:25;7.30;;;4.10;;
76725;SDS011;65651;53.154;17.916;2023-08-31T01:56:52;7.10;;;5.30;;
76725;SDS011;65651;53.154;17.916;2023-08-31T01:59:25;6.20;;;4.60;;
76725;SDS011;65651;53.154;17.916;2023-08-31T02:01:54;7.10;;;4.00;;
76725;SDS011;65651;53.154;17.916;2023-08-31T02:04:23;6.50;;;4.10;;
76725;SDS011;65651;53.154;17.916;2023-08-31T02:06:50;10.20;;;4.10;;
76725;SDS011;65651;53.154;17.916;2023-08-31T02:09:18;7.10;;;4.30;;
76725;SDS011;65651;53.154;17.916;2023-08-31T02:11:45;5.60;;;3.80;;
76725;SDS011;65651;53.154;17.916;2023-08-31T02:14:13;6.00;;;4.10;;
76725;SDS011;65651;53.154;17.916;2023-08-31T02:16:41;7.60;;;4.40;;
76725;SDS011;65651;53.154;17.916;2023-08-31T02:19:09;6.00;;;3.70;;
76725;SDS011;65651;53.154;17.916;2023-08-31T02:21:38;5.40;;;4.00;;
76725;SDS011;65651;53.154;17.916;2023-08-31T02:24:05;7.00;;;4.40;;
76725;SDS011;65651;53.154;17.916;2023-08-31T02:26:36;7.00;;;4.80;;
76725;SDS011;65651;53.154;17.916;2023-08-31T02:29:06;10.40;;;5.50;;
76725;SDS011;65651;53.154;17.916;2023-08-31T02:31:40;8.00;;;5.40;;
76725;SDS011;65651;53.154;17.916;2023-08-31T02:34:08;10.00;;;5.60;;
76725;SDS011;65651;53.154;17.916;2023-08-31T02:36:36;7.70;;;6.10;;
76725;SDS011;65651;53.154;17.916;2023-08-31T02:39:04;8.20;;;6.50;;
76725;SDS011;65651;53.154;17.916;2023-08-31T02:41:40;9.70;;;6.00;;
76725;SDS011;65651;53.154;17.916;2023-08-31T02:44:10;6.70;;;5.20;;
76725;SDS011;65651;53.154;17.916;2023-08-31T02:46:38;6.10;;;3.90;;
76725;SDS011;65651;53.154;17.916;2023-08-31T02:49:05;6.70;;;4.50;;
76725;SDS011;65651;53.154;17.916;2023-08-31T02:51:35;9.80;;;4.60;;
76725;SDS011;65651;53.154;17.916;2023-08-31T02:54:05;7.50;;;4.50;;
76725;SDS011;65651;53.154;17.916;2023-08-31T02:56:32;10.00;;;4.80;;
76725;SDS011;65651;53.154;17.916;2023-08-31T02:59:00;6.70;;;4.60;;
76725;SDS011;65651;53.154;17.916;2023-08-31T03:01:34;7.60;;;5.10;;
76725;SDS011;65651;53.154;17.916;2023-08-31T03:04:02;10.80;;;5.10;;
76725;SDS011;65651;53.154;17.916;2023-08-31T03:06:33;7.10;;;5.20;;
76725;SDS011;65651;53.154;17.916;2023-08-31T03:09:03;9.40;;;4.90;;
76725;SDS011;65651;53.154;17.916;2023-08-31T03:11:31;7.90;;;4.50;;
76725;SDS011;65651;53.154;17.916;2023-08-31T03:13:58;6.60;;;4.50;;
76725;SDS011;65651;53.154;17.916;2023-08-31T03:16:28;8.20;;;5.10;;
76725;SDS011;65651;53.154;17.916;2023-08-31T03:18:56;8.10;;;4.50;;
76725;SDS011;65651;53.154;17.916;2023-08-31T03:21:24;7.60;;;4.60;;
76725;SDS011;65651;53.154;17.916;2023-08-31T03:23:51;7.50;;;4.70;;
76725;SDS011;65651;53.154;17.916;2023-08-31T03:26:19;7.10;;;4.70;;
76725;SDS011;65651;53.154;17.916;2023-08-31T03:28:48;7.50;;;5.00;;
76725;SDS011;65651;53.154;17.916;2023-08-31T03:31:15;10.00;;;4.90;;
76725;SDS011;65651;53.154;17.916;2023-08-31T03:33:43;9.40;;;4.30;;
76725;SDS011;65651;53.154;17.916;2023-08-31T03:36:11;5.70;;;4.40;;
76725;SDS011;65651;53.154;17.916;2023-08-31T03:38:42;6.60;;;4.00;;
76725;SDS011;65651;53.154;17.916;2023-08-31T03:41:11;7.90;;;4.00;;
76725;SDS011;65651;53.154;17.916;2023-08-31T03:43:40;8.60;;;4.80;;
76725;SDS011;65651;53.154;17.916;2023-08-31T03:46:08;7.60;;;4.60;;
76725;SDS011;65651;53.154;17.916;2023-08-31T03:48:35;8.60;;;4.40;;
76725;SDS011;65651;53.154;17.916;2023-08-31T03:51:04;8.60;;;4.90;;
76725;SDS011;65651;53.154;17.916;2023-08-31T03:53:31;9.40;;;5.50;;
76725;SDS011;65651;53.154;17.916;2023-08-31T03:55:59;9.90;;;4.80;;
76725;SDS011;65651;53.154;17.916;2023-08-31T03:58:29;8.00;;;5.40;;
76725;SDS011;65651;53.154;17.916;2023-08-31T04:00:58;6.70;;;5.10;;
76725;SDS011;65651;53.154;17.916;2023-08-31T04:03:25;10.50;;;4.80;;
76725;SDS011;65651;53.154;17.916;2023-08-31T04:05:56;8.20;;;4.80;;
76725;SDS011;65651;53.154;17.916;2023-08-31T04:08:23;10.50;;;5.00;;
76725;SDS011;65651;53.154;17.916;2023-08-31T04:10:53;7.40;;;5.40;;
76725;SDS011;65651;53.154;17.916;2023-08-31T04:13:24;9.30;;;5.60;;
76725;SDS011;65651;53.154;17.916;2023-08-31T04:15:52;9.40;;;5.30;;
76725;SDS011;65651;53.154;17.916;2023-08-31T04:18:20;8.40;;;5.80;;
76725;SDS011;65651;53.154;17.916;2023-08-31T04:20:52;8.10;;;5.30;;
76725;SDS011;65651;53.154;17.916;2023-08-31T04:23:20;7.00;;;5.60;;
76725;SDS011;65651;53.154;17.916;2023-08-31T04:25:48;7.40;;;5.60;;
76725;SDS011;65651;53.154;17.916;2023-08-31T04:28:18;8.60;;;5.60;;
76725;SDS011;65651;53.154;17.916;2023-08-31T04:30:49;7.80;;;5.60;;
76725;SDS011;65651;53.154;17.916;2023-08-31T04:33:18;9.00;;;5.30;;
76725;SDS011;65651;53.154;17.916;2023-08-31T04:35:49;10.20;;;6.10;;
76725;SDS011;65651;53.154;17.916;2023-08-31T04:38:16;9.80;;;5.90;;
76725;SDS011;65651;53.154;17.916;2023-08-31T04:40:44;7.50;;;5.20;;
76725;SDS011;65651;53.154;17.916;2023-08-31T04:43:14;10.70;;;5.80;;
76725;SDS011;65651;53.154;17.916;2023-08-31T04:45:43;7.50;;;5.50;;
76725;SDS011;65651;53.154;17.916;2023-08-31T04:48:11;10.30;;;5.40;;
76725;SDS011;65651;53.154;17.916;2023-08-31T04:50:39;9.90;;;4.50;;
76725;SDS011;65651;53.154;17.916;2023-08-31T04:53:09;10.90;;;4.30;;
76725;SDS011;65651;53.154;17.916;2023-08-31T04:55:36;10.60;;;5.00;;
76725;SDS011;65651;53.154;17.916;2023-08-31T04:58:04;12.10;;;5.80;;
76725;SDS011;65651;53.154;17.916;2023-08-31T05:00:32;7.60;;;5.30;;
76725;SDS011;65651;53.154;17.916;2023-08-31T05:03:02;10.90;;;9.30;;
76725;SDS011;65651;53.154;17.916;2023-08-31T05:05:30;9.10;;;7.30;;
76725;SDS011;65651;53.154;17.916;2023-08-31T05:07:57;12.50;;;11.30;;
76725;SDS011;65651;53.154;17.916;2023-08-31T05:10:25;36.10;;;32.90;;
76725;SDS011;65651;53.154;17.916;2023-08-31T05:12:53;28.10;;;25.40;;
76725;SDS011;65651;53.154;17.916;2023-08-31T05:15:21;9.80;;;8.80;;
76725;SDS011;65651;53.154;17.916;2023-08-31T05:17:50;12.50;;;7.10;;
76725;SDS011;65651;53.154;17.916;2023-08-31T05:20:17;9.50;;;6.10;;
76725;SDS011;65651;53.154;17.916;2023-08-31T05:22:46;7.00;;;5.20;;
76725;SDS011;65651;53.154;17.916;2023-08-31T05:25:16;8.40;;;5.70;;
76725;SDS011;65651;53.154;17.916;2023-08-31T05:27:44;11.40;;;6.10;;
76725;SDS011;65651;53.154;17.916;2023-08-31T05:30:16;11.60;;;5.30;;
76725;SDS011;65651;53.154;17.916;2023-08-31T05:32:44;10.40;;;5.20;;
76725;SDS011;65651;53.154;17.916;2023-08-31T05:35:12;13.20;;;5.50;;
76725;SDS011;65651;53.154;17.916;2023-08-31T05:37:40;7.80;;;5.30;;
76725;SDS011;65651;53.154;17.916;2023-08-31T05:40:08;10.30;;;5.60;;
76725;SDS011;65651;53.154;17.916;2023-08-31T05:42:43;8.10;;;4.50;;
76725;SDS011;65651;53.154;17.916;2023-08-31T05:45:11;11.80;;;5.00;;
76725;SDS011;65651;53.154;17.916;2023-08-31T05:47:40;9.40;;;5.20;;
76725;SDS011;65651;53.154;17.916;2023-08-31T05:50:08;9.50;;;5.50;;
76725;SDS011;65651;53.154;17.916;2023-08-31T05:52:36;6.60;;;4.50;;
76725;SDS011;65651;53.154;17.916;2023-08-31T05:55:04;8.30;;;5.20;;
76725;SDS011;65651;53.154;17.916;2023-08-31T05:57:34;9.30;;;4.60;;
76725;SDS011;65651;53.154;17.916;2023-08-31T06:00:04;7.90;;;4.20;;
76725;SDS011;65651;53.154;17.916;2023-08-31T06:02:39;7.70;;;4.40;;
76725;SDS011;65651;53.154;17.916;2023-08-31T06:05:11;9.20;;;5.20;;
76725;SDS011;65651;53.154;17.916;2023-08-31T06:07:43;5.00;;;4.50;;
76725;SDS011;65651;53.154;17.916;2023-08-31T06:10:11;7.00;;;5.10;;
76725;SDS011;65651;53.154;17.916;2023-08-31T06:12:40;9.10;;;4.40;;
76725;SDS011;65651;53.154;17.916;2023-08-31T06:15:08;11.90;;;6.00;;
76725;SDS011;65651;53.154;17.916;2023-08-31T06:17:36;8.10;;;4.70;;
76725;SDS011;65651;53.154;17.916;2023-08-31T06:20:03;7.50;;;4.80;;
76725;SDS011;65651;53.154;17.916;2023-08-31T06:22:32;15.80;;;4.80;;
76725;SDS011;65651;53.154;17.916;2023-08-31T06:25:06;9.50;;;3.90;;
76725;SDS011;65651;53.154;17.916;2023-08-31T06:27:35;14.40;;;3.30;;
76725;SDS011;65651;53.154;17.916;2023-08-31T06:30:03;8.90;;;4.00;;
76725;SDS011;65651;53.154;17.916;2023-08-31T06:32:34;5.90;;;3.70;;
76725;SDS011;65651;53.154;17.916;2023-08-31T06:35:01;4.20;;;3.80;;
76725;SDS011;65651;53.154;17.916;2023-08-31T06:37:29;3.70;;;2.90;;
76725;SDS011;65651;53.154;17.916;2023-08-31T06:39:56;4.60;;;3.70;;
76725;SDS011;65651;53.154;17.916;2023-08-31T06:42:27;5.10;;;3.80;;
76725;SDS011;65651;53.154;17.916;2023-08-31T06:44:55;5.00;;;3.20;;
76725;SDS011;65651;53.154;17.916;2023-08-31T06:47:24;4.30;;;2.80;;
76725;SDS011;65651;53.154;17.916;2023-08-31T06:49:51;3.20;;;2.70;;
76725;SDS011;65651;53.154;17.916;2023-08-31T06:52:19;4.70;;;3.00;;
76725;SDS011;65651;53.154;17.916;2023-08-31T06:54:51;3.10;;;2.80;;
76725;SDS011;65651;53.154;17.916;2023-08-31T06:57:26;4.20;;;2.50;;
76725;SDS011;65651;53.154;17.916;2023-08-31T06:59:54;3.90;;;2.40;;
76725;SDS011;65651;53.154;17.916;2023-08-31T07:02:25;3.40;;;2.50;;
76725;SDS011;65651;53.154;17.916;2023-08-31T07:04:53;3.90;;;2.40;;
76725;SDS011;65651;53.154;17.916;2023-08-31T07:07:20;5.50;;;2.80;;
76725;SDS011;65651;53.154;17.916;2023-08-31T07:09:48;2.60;;;2.40;;
76725;SDS011;65651;53.154;17.916;2023-08-31T07:12:16;3.60;;;2.60;;
76725;SDS011;65651;53.154;17.916;2023-08-31T07:14:44;4.50;;;2.40;;
76725;SDS011;65651;53.154;17.916;2023-08-31T07:17:12;3.50;;;2.60;;
76725;SDS011;65651;53.154;17.916;2023-08-31T07:19:39;4.00;;;2.50;;
76725;SDS011;65651;53.154;17.916;2023-08-31T07:22:07;2.60;;;2.10;;
76725;SDS011;65651;53.154;17.916;2023-08-31T07:24:34;3.30;;;2.50;;
76725;SDS011;65651;53.154;17.916;2023-08-31T07:27:02;4.60;;;2.30;;
76725;SDS011;65651;53.154;17.916;2023-08-31T07:29:30;3.70;;;2.00;;
76725;SDS011;65651;53.154;17.916;2023-08-31T07:31:58;2.40;;;2.20;;
76725;SDS011;65651;53.154;17.916;2023-08-31T07:34:28;3.60;;;2.30;;
76725;SDS011;65651;53.154;17.916;2023-08-31T07:36:56;2.70;;;2.10;;
76725;SDS011;65651;53.154;17.916;2023-08-31T07:39:26;3.50;;;2.30;;
76725;SDS011;65651;53.154;17.916;2023-08-31T07:41:57;3.30;;;1.90;;
76725;SDS011;65651;53.154;17.916;2023-08-31T07:44:26;3.20;;;2.00;;
76725;SDS011;65651;53.154;17.916;2023-08-31T07:46:54;2.40;;;1.40;;
76725;SDS011;65651;53.154;17.916;2023-08-31T07:49:21;3.00;;;1.60;;
76725;SDS011;65651;53.154;17.916;2023-08-31T07:51:48;5.60;;;2.30;;
76725;SDS011;65651;53.154;17.916;2023-08-31T07:54:20;2.10;;;1.90;;
76725;SDS011;65651;53.154;17.916;2023-08-31T07:56:48;4.00;;;1.80;;
76725;SDS011;65651;53.154;17.916;2023-08-31T07:59:16;3.90;;;1.80;;
76725;SDS011;65651;53.154;17.916;2023-08-31T08:01:47;3.60;;;2.10;;
76725;SDS011;65651;53.154;17.916;2023-08-31T08:04:15;1.80;;;1.60;;
76725;SDS011;65651;53.154;17.916;2023-08-31T08:06:46;3.50;;;2.30;;
76725;SDS011;65651;53.154;17.916;2023-08-31T08:09:13;3.60;;;1.60;;
76725;SDS011;65651;53.154;17.916;2023-08-31T08:11:40;4.40;;;2.40;;
76725;SDS011;65651;53.154;17.916;2023-08-31T08:14:09;4.80;;;2.60;;
76725;SDS011;65651;53.154;17.916;2023-08-31T08:16:36;4.60;;;2.70;;
76725;SDS011;65651;53.154;17.916;2023-08-31T08:19:05;3.00;;;2.60;;
76725;SDS011;65651;53.154;17.916;2023-08-31T08:21:33;2.50;;;2.00;;
76725;SDS011;65651;53.154;17.916;2023-08-31T08:24:01;4.80;;;2.30;;
76725;SDS011;65651;53.154;17.916;2023-08-31T08:26:30;3.80;;;2.00;;
76725;SDS011;65651;53.154;17.916;2023-08-31T08:28:57;4.10;;;2.40;;
76725;SDS011;65651;53.154;17.916;2023-08-31T08:31:25;3.70;;;2.70;;
76725;SDS011;65651;53.154;17.916;2023-08-31T08:33:52;4.10;;;2.70;;
76725;SDS011;65651;53.154;17.916;2023-08-31T08:36:19;3.40;;;2.40;;
76725;SDS011;65651;53.154;17.916;2023-08-31T08:38:47;2.80;;;2.60;;
76725;SDS011;65651;53.154;17.916;2023-08-31T08:41:14;9.80;;;2.70;;
76725;SDS011;65651;53.154;17.916;2023-08-31T08:43:52;3.30;;;2.70;;
76725;SDS011;65651;53.154;17.916;2023-08-31T08:46:20;4.20;;;2.50;;
76725;SDS011;65651;53.154;17.916;2023-08-31T08:48:48;3.70;;;2.70;;
76725;SDS011;65651;53.154;17.916;2023-08-31T08:51:16;4.10;;;2.30;;
76725;SDS011;65651;53.154;17.916;2023-08-31T08:53:44;3.00;;;2.50;;
76725;SDS011;65651;53.154;17.916;2023-08-31T08:56:13;3.20;;;2.90;;
76725;SDS011;65651;53.154;17.916;2023-08-31T08:58:40;7.30;;;4.60;;
76725;SDS011;65651;53.154;17.916;2023-08-31T09:01:08;4.60;;;3.00;;
76725;SDS011;65651;53.154;17.916;2023-08-31T09:03:38;3.70;;;3.40;;
76725;SDS011;65651;53.154;17.916;2023-08-31T09:06:06;4.10;;;3.20;;
76725;SDS011;65651;53.154;17.916;2023-08-31T09:08:35;4.10;;;3.40;;
76725;SDS011;65651;53.154;17.916;2023-08-31T09:11:09;7.50;;;4.00;;
76725;SDS011;65651;53.154;17.916;2023-08-31T09:13:49;5.00;;;4.50;;
76725;SDS011;65651;53.154;17.916;2023-08-31T09:16:28;5.40;;;3.80;;
76725;SDS011;65651;53.154;17.916;2023-08-31T09:18:57;6.10;;;3.70;;
76725;SDS011;65651;53.154;17.916;2023-08-31T09:21:34;7.40;;;5.90;;
76725;SDS011;65651;53.154;17.916;2023-08-31T09:24:06;6.00;;;5.40;;
76725;SDS011;65651;53.154;17.916;2023-08-31T09:26:44;9.80;;;5.60;;
76725;SDS011;65651;53.154;17.916;2023-08-31T09:29:15;9.60;;;4.60;;
76725;SDS011;65651;53.154;17.916;2023-08-31T09:31:44;5.70;;;4.80;;
76725;SDS011;65651;53.154;17.916;2023-08-31T09:34:16;5.60;;;4.60;;
76725;SDS011;65651;53.154;17.916;2023-08-31T09:36:44;6.10;;;5.10;;
76725;SDS011;65651;53.154;17.916;2023-08-31T09:39:13;7.60;;;5.50;;
76725;SDS011;65651;53.154;17.916;2023-08-31T09:41:54;7.10;;;5.60;;
76725;SDS011;65651;53.154;17.916;2023-08-31T09:44:22;5.70;;;5.20;;
76725;SDS011;65651;53.154;17.916;2023-08-31T09:46:49;5.20;;;4.80;;
76725;SDS011;65651;53.154;17.916;2023-08-31T09:49:20;6.50;;;5.50;;
76725;SDS011;65651;53.154;17.916;2023-08-31T09:51:49;5.00;;;4.50;;
76725;SDS011;65651;53.154;17.916;2023-08-31T09:54:17;4.40;;;4.00;;
76725;SDS011;65651;53.154;17.916;2023-08-31T09:56:49;7.60;;;5.10;;
76725;SDS011;65651;53.154;17.916;2023-08-31T09:59:18;5.30;;;4.80;;
76725;SDS011;65651;53.154;17.916;2023-08-31T10:01:45;5.80;;;5.30;;
76725;SDS011;65651;53.154;17.916;2023-08-31T10:04:13;5.80;;;5.20;;
76725;SDS011;65651;53.154;17.916;2023-08-31T10:06:42;5.50;;;5.00;;
76725;SDS011;65651;53.154;17.916;2023-08-31T10:09:12;5.70;;;5.10;;
76725;SDS011;65651;53.154;17.916;2023-08-31T10:11:41;6.50;;;5.90;;
76725;SDS011;65651;53.154;17.916;2023-08-31T10:14:12;6.10;;;5.40;;
76725;SDS011;65651;53.154;17.916;2023-08-31T10:16:40;7.30;;;6.30;;
76725;SDS011;65651;53.154;17.916;2023-08-31T10:19:10;6.60;;;5.90;;
76725;SDS011;65651;53.154;17.916;2023-08-31T10:21:39;8.30;;;6.40;;
76725;SDS011;65651;53.154;17.916;2023-08-31T10:24:10;7.80;;;6.40;;
76725;SDS011;65651;53.154;17.916;2023-08-31T10:26:37;5.30;;;4.50;;
76725;SDS011;65651;53.154;17.916;2023-08-31T10:29:05;5.70;;;4.20;;
76725;SDS011;65651;53.154;17.916;2023-08-31T10:31:35;4.10;;;3.50;;
76725;SDS011;65651;53.154;17.916;2023-08-31T10:34:03;4.10;;;3.60;;
76725;SDS011;65651;53.154;17.916;2023-08-31T10:36:35;6.40;;;4.60;;
76725;SDS011;65651;53.154;17.916;2023-08-31T10:39:06;6.40;;;4.40;;
76725;SDS011;65651;53.154;17.916;2023-08-31T10:41:52;5.40;;;4.90;;
76725;SDS011;65651;53.154;17.916;2023-08-31T10:44:21;5.20;;;4.70;;
76725;SDS011;65651;53.154;17.916;2023-08-31T10:46:49;5.20;;;3.90;;
76725;SDS011;65651;53.154;17.916;2023-08-31T10:49:18;4.90;;;4.20;;
76725;SDS011;65651;53.154;17.916;2023-08-31T10:51:57;4.80;;;3.80;;
76725;SDS011;65651;53.154;17.916;2023-08-31T10:54:41;4.70;;;4.30;;
76725;SDS011;65651;53.154;17.916;2023-08-31T10:57:08;5.60;;;5.10;;
76725;SDS011;65651;53.154;17.916;2023-08-31T11:02:35;6.40;;;5.70;;
76725;SDS011;65651;53.154;17.916;2023-08-31T11:05:10;8.00;;;5.40;;
76725;SDS011;65651;53.154;17.916;2023-08-31T11:07:38;9.20;;;5.90;;
76725;SDS011;65651;53.154;17.916;2023-08-31T11:12:41;8.00;;;7.10;;
76725;SDS011;65651;53.154;17.916;2023-08-31T11:15:14;7.40;;;6.30;;
76725;SDS011;65651;53.154;17.916;2023-08-31T11:17:42;7.90;;;7.20;;
76725;SDS011;65651;53.154;17.916;2023-08-31T11:20:16;6.20;;;5.50;;
76725;SDS011;65651;53.154;17.916;2023-08-31T11:22:49;8.20;;;6.90;;
76725;SDS011;65651;53.154;17.916;2023-08-31T11:25:17;6.50;;;5.90;;
76725;SDS011;65651;53.154;17.916;2023-08-31T11:28:00;9.10;;;6.60;;
76725;SDS011;65651;53.154;17.916;2023-08-31T11:30:33;8.60;;;6.10;;
76725;SDS011;65651;53.154;17.916;2023-08-31T11:33:04;7.10;;;5.60;;
76725;SDS011;65651;53.154;17.916;2023-08-31T11:35:36;4.60;;;4.00;;
76725;SDS011;65651;53.154;17.916;2023-08-31T11:38:07;6.00;;;5.30;;
76725;SDS011;65651;53.154;17.916;2023-08-31T11:40:35;5.40;;;4.80;;
76725;SDS011;65651;53.154;17.916;2023-08-31T11:43:06;6.10;;;5.40;;
76725;SDS011;65651;53.154;17.916;2023-08-31T11:45:34;7.30;;;6.10;;
76725;SDS011;65651;53.154;17.916;2023-08-31T11:48:06;6.60;;;5.10;;
76725;SDS011;65651;53.154;17.916;2023-08-31T11:50:36;5.90;;;4.70;;
76725;SDS011;65651;53.154;17.916;2023-08-31T11:53:06;6.60;;;4.90;;
76725;SDS011;65651;53.154;17.916;2023-08-31T11:55:33;6.80;;;5.30;;
76725;SDS011;65651;53.154;17.916;2023-08-31T11:58:01;5.70;;;5.10;;
76725;SDS011;65651;53.154;17.916;2023-08-31T12:00:28;6.20;;;5.60;;
76725;SDS011;65651;53.154;17.916;2023-08-31T12:02:58;5.30;;;4.80;;
76725;SDS011;65651;53.154;17.916;2023-08-31T12:05:44;5.50;;;4.90;;
76725;SDS011;65651;53.154;17.916;2023-08-31T12:08:13;4.40;;;3.50;;
76725;SDS011;65651;53.154;17.916;2023-08-31T12:10:42;3.10;;;2.80;;
76725;SDS011;65651;53.154;17.916;2023-08-31T12:13:10;4.20;;;2.90;;
76725;SDS011;65651;53.154;17.916;2023-08-31T12:15:39;3.40;;;3.10;;
76725;SDS011;65651;53.154;17.916;2023-08-31T12:18:13;3.50;;;3.20;;
76725;SDS011;65651;53.154;17.916;2023-08-31T12:23:14;31.60;;;5.10;;
76725;SDS011;65651;53.154;17.916;2023-08-31T12:25:48;9.70;;;3.00;;
76725;SDS011;65651;53.154;17.916;2023-08-31T12:28:19;7.20;;;3.60;;
76725;SDS011;65651;53.154;17.916;2023-08-31T12:30:49;4.00;;;2.70;;
76725;SDS011;65651;53.154;17.916;2023-08-31T12:33:18;4.20;;;3.10;;
76725;SDS011;65651;53.154;17.916;2023-08-31T12:35:46;4.90;;;3.50;;
76725;SDS011;65651;53.154;17.916;2023-08-31T12:38:14;2.70;;;2.50;;
76725;SDS011;65651;53.154;17.916;2023-08-31T12:40:41;2.40;;;2.20;;
76725;SDS011;65651;53.154;17.916;2023-08-31T12:43:09;3.20;;;3.00;;
76725;SDS011;65651;53.154;17.916;2023-08-31T12:45:36;3.80;;;3.10;;
76725;SDS011;65651;53.154;17.916;2023-08-31T12:48:04;2.90;;;2.60;;
76725;SDS011;65651;53.154;17.916;2023-08-31T12:50:32;3.30;;;2.90;;
76725;SDS011;65651;53.154;17.916;2023-08-31T12:53:00;3.20;;;2.90;;
76725;SDS011;65651;53.154;17.916;2023-08-31T12:55:27;3.70;;;2.40;;
76725;SDS011;65651;53.154;17.916;2023-08-31T12:57:54;3.50;;;2.70;;
76725;SDS011;65651;53.154;17.916;2023-08-31T13:00:21;2.80;;;2.40;;
76725;SDS011;65651;53.154;17.916;2023-08-31T13:02:50;4.80;;;2.30;;
76725;SDS011;65651;53.154;17.916;2023-08-31T13:05:18;3.60;;;2.60;;
76725;SDS011;65651;53.154;17.916;2023-08-31T13:07:46;2.40;;;2.20;;
76725;SDS011;65651;53.154;17.916;2023-08-31T13:10:13;4.10;;;2.80;;
76725;SDS011;65651;53.154;17.916;2023-08-31T13:12:41;4.50;;;2.90;;
76725;SDS011;65651;53.154;17.916;2023-08-31T13:15:09;4.10;;;3.00;;
76725;SDS011;65651;53.154;17.916;2023-08-31T13:17:37;3.20;;;2.70;;
76725;SDS011;65651;53.154;17.916;2023-08-31T13:20:04;3.40;;;3.10;;
76725;SDS011;65651;53.154;17.916;2023-08-31T13:22:32;3.20;;;2.90;;
76725;SDS011;65651;53.154;17.916;2023-08-31T13:24:59;3.60;;;3.30;;
76725;SDS011;65651;53.154;17.916;2023-08-31T13:27:27;2.80;;;2.20;;
76725;SDS011;65651;53.154;17.916;2023-08-31T13:30:03;3.80;;;2.80;;
76725;SDS011;65651;53.154;17.916;2023-08-31T13:32:59;3.30;;;2.90;;
76725;SDS011;65651;53.154;17.916;2023-08-31T14:25:13;2.60;;;1.50;;
76725;SDS011;65651;53.154;17.916;2023-08-31T14:27:41;3.90;;;2.20;;
76725;SDS011;65651;53.154;17.916;2023-08-31T14:30:08;2.70;;;2.00;;
76725;SDS011;65651;53.154;17.916;2023-08-31T14:32:36;1.90;;;1.60;;
76725;SDS011;65651;53.154;17.916;2023-08-31T14:35:03;2.50;;;1.60;;
76725;SDS011;65651;53.154;17.916;2023-08-31T14:37:37;2.40;;;1.60;;
76725;SDS011;65651;53.154;17.916;2023-08-31T14:40:04;3.30;;;1.90;;
76725;SDS011;65651;53.154;17.916;2023-08-31T14:42:33;3.50;;;2.40;;
76725;SDS011;65651;53.154;17.916;2023-08-31T14:45:01;4.30;;;2.70;;
76725;SDS011;65651;53.154;17.916;2023-08-31T14:47:29;5.10;;;2.60;;
76725;SDS011;65651;53.154;17.916;2023-08-31T14:49:56;5.80;;;3.00;;
76725;SDS011;65651;53.154;17.916;2023-08-31T14:52:23;3.30;;;2.40;;
76725;SDS011;65651;53.154;17.916;2023-08-31T14:54:51;4.40;;;2.50;;
76725;SDS011;65651;53.154;17.916;2023-08-31T14:57:18;4.20;;;2.10;;
76725;SDS011;65651;53.154;17.916;2023-08-31T14:59:46;3.20;;;2.30;;
76725;SDS011;65651;53.154;17.916;2023-08-31T15:02:13;5.20;;;2.60;;
76725;SDS011;65651;53.154;17.916;2023-08-31T15:04:44;4.70;;;3.50;;
76725;SDS011;65651;53.154;17.916;2023-08-31T15:07:12;7.70;;;1.70;;
76725;SDS011;65651;53.154;17.916;2023-08-31T15:09:39;3.50;;;2.60;;
76725;SDS011;65651;53.154;17.916;2023-08-31T15:12:06;2.20;;;1.60;;
76725;SDS011;65651;53.154;17.916;2023-08-31T15:14:33;2.60;;;1.90;;
76725;SDS011;65651;53.154;17.916;2023-08-31T15:17:02;2.60;;;1.80;;
76725;SDS011;65651;53.154;17.916;2023-08-31T15:19:29;3.50;;;2.20;;
76725;SDS011;65651;53.154;17.916;2023-08-31T15:21:58;4.00;;;1.70;;
76725;SDS011;65651;53.154;17.916;2023-08-31T15:24:26;2.30;;;1.60;;
76725;SDS011;65651;53.154;17.916;2023-08-31T15:26:53;3.40;;;2.50;;
76725;SDS011;65651;53.154;17.916;2023-08-31T15:29:21;4.40;;;2.00;;
76725;SDS011;65651;53.154;17.916;2023-08-31T15:31:51;3.50;;;2.30;;
76725;SDS011;65651;53.154;17.916;2023-08-31T15:34:24;5.30;;;2.80;;
76725;SDS011;65651;53.154;17.916;2023-08-31T15:36:52;4.80;;;2.70;;
76725;SDS011;65651;53.154;17.916;2023-08-31T15:39:19;4.50;;;1.70;;
76725;SDS011;65651;53.154;17.916;2023-08-31T15:41:46;4.20;;;2.20;;
76725;SDS011;65651;53.154;17.916;2023-08-31T15:44:13;2.90;;;1.90;;
76725;SDS011;65651;53.154;17.916;2023-08-31T15:46:41;3.60;;;2.30;;
76725;SDS011;65651;53.154;17.916;2023-08-31T15:49:08;3.50;;;2.30;;
76725;SDS011;65651;53.154;17.916;2023-08-31T15:51:35;4.60;;;2.50;;